sensor_id;sensor_type;location;lat;lon;timestamp;pressure;altitude;pressure_sealevel;temperature;humidity
84318;BME280;74497;51.654;14.238;2023-12-22T00:00:22;97668.44;;;4.72;100.00
84318;BME280;74497;51.654;14.238;2023-12-22T00:02:47;97660.13;;;4.75;100.00
84318;BME280;74497;51.654;14.238;2023-12-22T00:05:13;97661.03;;;4.82;100.00
84318;BME280;74497;51.654;14.238;2023-12-22T00:07:39;97686.59;;;4.90;100.00
84318;BME280;74497;51.654;14.238;2023-12-22T00:10:05;97676.00;;;4.90;100.00
84318;BME280;74497;51.654;14.238;2023-12-22T00:15:54;97665.50;;;4.97;100.00
84318;BME280;74497;51.654;14.238;2023-12-22T00:18:19;97663.84;;;4.96;100.00
84318;BME280;74497;51.654;14.238;2023-12-22T00:20:45;97668.50;;;4.94;100.00
84318;BME280;74497;51.654;14.238;2023-12-22T00:23:10;97654.53;;;5.00;100.00
84318;BME280;74497;51.654;14.238;2023-12-22T00:25:41;97666.94;;;4.99;100.00
84318;BME280;74497;51.654;14.238;2023-12-22T00:28:06;97664.31;;;4.99;100.00
84318;BME280;74497;51.654;14.238;2023-12-22T00:30:32;97656.28;;;4.93;100.00
84318;BME280;74497;51.654;14.238;2023-12-22T00:32:59;97659.38;;;4.96;100.00
84318;BME280;74497;51.654;14.238;2023-12-22T00:35:25;97652.00;;;4.92;100.00
84318;BME280;74497;51.654;14.238;2023-12-22T00:37:51;97654.28;;;4.95;100.00
84318;BME280;74497;51.654;14.238;2023-12-22T00:40:18;97657.56;;;4.97;100.00
84318;BME280;74497;51.654;14.238;2023-12-22T00:42:44;97659.28;;;4.89;100.00
84318;BME280;74497;51.654;14.238;2023-12-22T00:45:10;97668.78;;;4.99;100.00
84318;BME280;74497;51.654;14.238;2023-12-22T00:47:36;97720.31;;;5.03;100.00
84318;BME280;74497;51.654;14.238;2023-12-22T00:50:03;97733.56;;;5.03;100.00
84318;BME280;74497;51.654;14.238;2023-12-22T00:52:30;97789.19;;;3.88;100.00
84318;BME280;74497;51.654;14.238;2023-12-22T00:54:56;97772.88;;;2.98;100.00
84318;BME280;74497;51.654;14.238;2023-12-22T00:57:22;97766.69;;;2.26;100.00
84318;BME280;74497;51.654;14.238;2023-12-22T00:59:48;97769.78;;;1.88;100.00
84318;BME280;74497;51.654;14.238;2023-12-22T01:02:17;97775.47;;;1.59;100.00
84318;BME280;74497;51.654;14.238;2023-12-22T01:04:44;97778.50;;;1.39;100.00
84318;BME280;74497;51.654;14.238;2023-12-22T01:07:10;97790.44;;;1.25;100.00
84318;BME280;74497;51.654;14.238;2023-12-22T01:09:36;97779.91;;;1.17;100.00
84318;BME280;74497;51.654;14.238;2023-12-22T01:12:05;97809.91;;;1.06;100.00
84318;BME280;74497;51.654;14.238;2023-12-22T01:14:32;97809.34;;;0.94;100.00
84318;BME280;74497;51.654;14.238;2023-12-22T01:16:58;97808.16;;;0.89;100.00
84318;BME280;74497;51.654;14.238;2023-12-22T01:19:25;97806.31;;;0.81;100.00
84318;BME280;74497;51.654;14.238;2023-12-22T01:21:51;97812.25;;;0.83;100.00
84318;BME280;74497;51.654;14.238;2023-12-22T01:24:17;97816.19;;;0.87;100.00
84318;BME280;74497;51.654;14.238;2023-12-22T01:26:42;97809.22;;;0.96;100.00
84318;BME280;74497;51.654;14.238;2023-12-22T01:29:08;97820.41;;;1.06;100.00
84318;BME280;74497;51.654;14.238;2023-12-22T01:31:34;97817.81;;;1.14;100.00
84318;BME280;74497;51.654;14.238;2023-12-22T01:33:59;97813.28;;;1.24;100.00
84318;BME280;74497;51.654;14.238;2023-12-22T01:36:25;97816.78;;;1.33;100.00
84318;BME280;74497;51.654;14.238;2023-12-22T01:38:51;97815.69;;;1.44;100.00
84318;BME280;74497;51.654;14.238;2023-12-22T01:41:16;97816.53;;;1.52;100.00
84318;BME280;74497;51.654;14.238;2023-12-22T01:43:42;97818.56;;;1.67;100.00
84318;BME280;74497;51.654;14.238;2023-12-22T01:46:09;97812.34;;;1.76;100.00
84318;BME280;74497;51.654;14.238;2023-12-22T01:48:36;97810.44;;;1.94;100.00
84318;BME280;74497;51.654;14.238;2023-12-22T01:51:02;97809.47;;;2.11;100.00
84318;BME280;74497;51.654;14.238;2023-12-22T01:53:28;97810.31;;;2.20;100.00
84318;BME280;74497;51.654;14.238;2023-12-22T01:55:55;97804.25;;;2.36;100.00
84318;BME280;74497;51.654;14.238;2023-12-22T01:58:23;97804.41;;;2.42;100.00
84318;BME280;74497;51.654;14.238;2023-12-22T02:00:49;97798.97;;;2.52;100.00
84318;BME280;74497;51.654;14.238;2023-12-22T02:03:16;97794.84;;;2.58;100.00
84318;BME280;74497;51.654;14.238;2023-12-22T02:05:42;97798.47;;;2.65;100.00
84318;BME280;74497;51.654;14.238;2023-12-22T02:08:09;97819.22;;;2.68;100.00
84318;BME280;74497;51.654;14.238;2023-12-22T02:10:36;97819.38;;;2.75;100.00
84318;BME280;74497;51.654;14.238;2023-12-22T02:13:02;97830.75;;;2.75;100.00
84318;BME280;74497;51.654;14.238;2023-12-22T02:15:28;97809.00;;;2.81;100.00
84318;BME280;74497;51.654;14.238;2023-12-22T02:17:59;97809.47;;;2.85;100.00
84318;BME280;74497;51.654;14.238;2023-12-22T02:20:28;97819.03;;;2.94;100.00
84318;BME280;74497;51.654;14.238;2023-12-22T02:22:55;97808.13;;;2.97;100.00
84318;BME280;74497;51.654;14.238;2023-12-22T02:25:21;97795.94;;;2.96;100.00
84318;BME280;74497;51.654;14.238;2023-12-22T02:28:00;97784.09;;;3.00;100.00
84318;BME280;74497;51.654;14.238;2023-12-22T02:30:45;97787.69;;;3.07;100.00
84318;BME280;74497;51.654;14.238;2023-12-22T02:33:16;97784.06;;;3.08;100.00
84318;BME280;74497;51.654;14.238;2023-12-22T02:35:42;97783.06;;;3.09;100.00
84318;BME280;74497;51.654;14.238;2023-12-22T02:38:10;97790.66;;;3.12;100.00
84318;BME280;74497;51.654;14.238;2023-12-22T02:40:37;97798.03;;;3.17;100.00
84318;BME280;74497;51.654;14.238;2023-12-22T02:43:05;97803.81;;;3.20;100.00
84318;BME280;74497;51.654;14.238;2023-12-22T02:45:31;97789.63;;;3.21;100.00
84318;BME280;74497;51.654;14.238;2023-12-22T02:47:57;97795.53;;;3.23;100.00
84318;BME280;74497;51.654;14.238;2023-12-22T02:50:23;97795.88;;;3.29;100.00
84318;BME280;74497;51.654;14.238;2023-12-22T02:52:49;97800.00;;;3.31;100.00
84318;BME280;74497;51.654;14.238;2023-12-22T02:55:15;97794.06;;;3.21;100.00
84318;BME280;74497;51.654;14.238;2023-12-22T02:57:41;97789.28;;;3.24;100.00
84318;BME280;74497;51.654;14.238;2023-12-22T03:00:07;97797.34;;;3.31;100.00
84318;BME280;74497;51.654;14.238;2023-12-22T03:02:33;97798.31;;;3.30;100.00
84318;BME280;74497;51.654;14.238;2023-12-22T03:04:58;97788.25;;;3.34;100.00
84318;BME280;74497;51.654;14.238;2023-12-22T03:07:24;97779.72;;;3.32;100.00
84318;BME280;74497;51.654;14.238;2023-12-22T03:09:50;97777.56;;;3.27;100.00
84318;BME280;74497;51.654;14.238;2023-12-22T03:12:15;97779.38;;;3.27;100.00
84318;BME280;74497;51.654;14.238;2023-12-22T03:14:41;97779.53;;;3.33;100.00
84318;BME280;74497;51.654;14.238;2023-12-22T03:17:07;97765.69;;;3.31;100.00
84318;BME280;74497;51.654;14.238;2023-12-22T03:19:33;97769.97;;;3.32;100.00
84318;BME280;74497;51.654;14.238;2023-12-22T03:21:59;97773.25;;;3.34;100.00
84318;BME280;74497;51.654;14.238;2023-12-22T03:24:26;97766.53;;;3.32;100.00
84318;BME280;74497;51.654;14.238;2023-12-22T03:26:54;97767.47;;;3.39;100.00
84318;BME280;74497;51.654;14.238;2023-12-22T03:29:20;97779.66;;;3.40;100.00
84318;BME280;74497;51.654;14.238;2023-12-22T03:31:46;97772.88;;;3.45;100.00
84318;BME280;74497;51.654;14.238;2023-12-22T03:34:13;97776.34;;;3.46;100.00
84318;BME280;74497;51.654;14.238;2023-12-22T03:36:38;97780.63;;;3.47;100.00
84318;BME280;74497;51.654;14.238;2023-12-22T03:39:05;97784.09;;;3.47;100.00
84318;BME280;74497;51.654;14.238;2023-12-22T03:41:31;97796.13;;;3.50;100.00
84318;BME280;74497;51.654;14.238;2023-12-22T03:43:57;97800.41;;;3.51;100.00
84318;BME280;74497;51.654;14.238;2023-12-22T03:46:23;97807.31;;;3.52;100.00
84318;BME280;74497;51.654;14.238;2023-12-22T03:48:50;97820.16;;;3.55;100.00
84318;BME280;74497;51.654;14.238;2023-12-22T03:51:15;97811.44;;;3.55;100.00
84318;BME280;74497;51.654;14.238;2023-12-22T03:53:41;97814.25;;;3.53;100.00
84318;BME280;74497;51.654;14.238;2023-12-22T03:56:08;97812.25;;;3.55;100.00
84318;BME280;74497;51.654;14.238;2023-12-22T03:58:35;97795.81;;;3.45;100.00
84318;BME280;74497;51.654;14.238;2023-12-22T04:01:01;97796.31;;;3.40;100.00
84318;BME280;74497;51.654;14.238;2023-12-22T04:03:26;97787.59;;;3.40;100.00
84318;BME280;74497;51.654;14.238;2023-12-22T04:05:52;97787.91;;;3.37;100.00
84318;BME280;74497;51.654;14.238;2023-12-22T04:08:18;97764.03;;;3.38;100.00
84318;BME280;74497;51.654;14.238;2023-12-22T04:10:45;97804.88;;;3.42;100.00
84318;BME280;74497;51.654;14.238;2023-12-22T04:13:11;97818.88;;;3.43;100.00
84318;BME280;74497;51.654;14.238;2023-12-22T04:15:36;97823.84;;;3.46;100.00
84318;BME280;74497;51.654;14.238;2023-12-22T04:18:02;97810.97;;;3.51;100.00
84318;BME280;74497;51.654;14.238;2023-12-22T04:20:28;97818.22;;;3.49;100.00
84318;BME280;74497;51.654;14.238;2023-12-22T04:22:53;97826.81;;;3.51;100.00
84318;BME280;74497;51.654;14.238;2023-12-22T04:25:19;97826.81;;;3.51;100.00
84318;BME280;74497;51.654;14.238;2023-12-22T04:27:45;97816.25;;;3.51;100.00
84318;BME280;74497;51.654;14.238;2023-12-22T04:30:11;97817.38;;;3.48;100.00
84318;BME280;74497;51.654;14.238;2023-12-22T04:32:37;97825.97;;;3.50;100.00
84318;BME280;74497;51.654;14.238;2023-12-22T04:35:03;97812.94;;;3.49;100.00
84318;BME280;74497;51.654;14.238;2023-12-22T04:37:29;97824.97;;;3.51;100.00
84318;BME280;74497;51.654;14.238;2023-12-22T04:39:57;97822.16;;;3.53;100.00
84318;BME280;74497;51.654;14.238;2023-12-22T04:42:23;97833.72;;;3.52;100.00
84318;BME280;74497;51.654;14.238;2023-12-22T04:44:53;97825.31;;;3.48;100.00
84318;BME280;74497;51.654;14.238;2023-12-22T04:47:19;97814.59;;;3.50;100.00
84318;BME280;74497;51.654;14.238;2023-12-22T04:49:46;97824.16;;;3.43;100.00
84318;BME280;74497;51.654;14.238;2023-12-22T04:52:11;97825.34;;;3.40;100.00
84318;BME280;74497;51.654;14.238;2023-12-22T04:54:37;97827.16;;;3.40;100.00
84318;BME280;74497;51.654;14.238;2023-12-22T04:57:04;97825.69;;;3.37;100.00
84318;BME280;74497;51.654;14.238;2023-12-22T04:59:35;97825.03;;;3.35;100.00
84318;BME280;74497;51.654;14.238;2023-12-22T05:02:01;97817.78;;;3.29;100.00
84318;BME280;74497;51.654;14.238;2023-12-22T05:04:27;97814.00;;;3.23;100.00
84318;BME280;74497;51.654;14.238;2023-12-22T05:06:53;97810.72;;;3.21;100.00
84318;BME280;74497;51.654;14.238;2023-12-22T05:09:21;97799.00;;;3.24;100.00
84318;BME280;74497;51.654;14.238;2023-12-22T05:11:50;97796.84;;;3.28;100.00
84318;BME280;74497;51.654;14.238;2023-12-22T05:14:15;97798.84;;;3.25;100.00
84318;BME280;74497;51.654;14.238;2023-12-22T05:16:41;97782.03;;;3.27;100.00
84318;BME280;74497;51.654;14.238;2023-12-22T05:19:07;97789.13;;;3.26;100.00
84318;BME280;74497;51.654;14.238;2023-12-22T05:21:53;97771.13;;;3.30;100.00
84318;BME280;74497;51.654;14.238;2023-12-22T05:24:22;97771.78;;;3.32;100.00
84318;BME280;74497;51.654;14.238;2023-12-22T05:26:50;97757.91;;;3.38;100.00
84318;BME280;74497;51.654;14.238;2023-12-22T05:29:16;97766.66;;;3.30;100.00
84318;BME280;74497;51.654;14.238;2023-12-22T05:31:45;97774.06;;;3.35;100.00
84318;BME280;74497;51.654;14.238;2023-12-22T05:34:13;97753.78;;;3.35;100.00
84318;BME280;74497;51.654;14.238;2023-12-22T05:36:42;97768.97;;;3.33;100.00
84318;BME280;74497;51.654;14.238;2023-12-22T05:39:16;97777.03;;;3.40;100.00
84318;BME280;74497;51.654;14.238;2023-12-22T05:41:48;97772.94;;;3.37;100.00
84318;BME280;74497;51.654;14.238;2023-12-22T05:44:14;97773.91;;;3.36;100.00
84318;BME280;74497;51.654;14.238;2023-12-22T05:46:39;97754.00;;;3.25;100.00
84318;BME280;74497;51.654;14.238;2023-12-22T05:49:05;97760.09;;;3.26;100.00
84318;BME280;74497;51.654;14.238;2023-12-22T05:51:44;97760.56;;;3.30;100.00
84318;BME280;74497;51.654;14.238;2023-12-22T05:54:09;97761.91;;;3.25;100.00
84318;BME280;74497;51.654;14.238;2023-12-22T05:56:36;97772.25;;;3.35;100.00
84318;BME280;74497;51.654;14.238;2023-12-22T05:59:02;97757.25;;;3.36;100.00
84318;BME280;74497;51.654;14.238;2023-12-22T06:01:28;97763.53;;;3.35;100.00
84318;BME280;74497;51.654;14.238;2023-12-22T06:03:57;97761.66;;;3.43;100.00
84318;BME280;74497;51.654;14.238;2023-12-22T06:06:23;97768.94;;;3.41;100.00
84318;BME280;74497;51.654;14.238;2023-12-22T06:08:49;97781.63;;;3.46;100.00
84318;BME280;74497;51.654;14.238;2023-12-22T06:11:15;97765.78;;;3.46;100.00
84318;BME280;74497;51.654;14.238;2023-12-22T06:13:41;97782.94;;;3.50;100.00
84318;BME280;74497;51.654;14.238;2023-12-22T06:16:11;97779.31;;;3.51;100.00
84318;BME280;74497;51.654;14.238;2023-12-22T06:18:37;97795.59;;;3.55;100.00
84318;BME280;74497;51.654;14.238;2023-12-22T06:21:12;97786.22;;;3.52;100.00
84318;BME280;74497;51.654;14.238;2023-12-22T06:23:38;97796.13;;;3.50;100.00
84318;BME280;74497;51.654;14.238;2023-12-22T06:26:13;97791.81;;;3.49;100.00
84318;BME280;74497;51.654;14.238;2023-12-22T06:28:39;97808.47;;;3.49;100.00
84318;BME280;74497;51.654;14.238;2023-12-22T06:31:10;97766.44;;;3.48;100.00
84318;BME280;74497;51.654;14.238;2023-12-22T06:33:43;97815.72;;;3.56;100.00
84318;BME280;74497;51.654;14.238;2023-12-22T06:36:26;97834.34;;;3.54;100.00
84318;BME280;74497;51.654;14.238;2023-12-22T06:38:53;97857.69;;;3.26;100.00
84318;BME280;74497;51.654;14.238;2023-12-22T06:41:28;97839.16;;;2.62;100.00
84318;BME280;74497;51.654;14.238;2023-12-22T06:43:55;97850.66;;;2.45;100.00
84318;BME280;74497;51.654;14.238;2023-12-22T06:46:23;97851.25;;;2.14;100.00
84318;BME280;74497;51.654;14.238;2023-12-22T06:48:52;97861.72;;;1.90;100.00
84318;BME280;74497;51.654;14.238;2023-12-22T06:51:22;97858.38;;;1.72;100.00
84318;BME280;74497;51.654;14.238;2023-12-22T06:53:54;97854.06;;;1.62;100.00
84318;BME280;74497;51.654;14.238;2023-12-22T06:56:25;97860.22;;;1.45;100.00
84318;BME280;74497;51.654;14.238;2023-12-22T06:58:53;97868.44;;;1.42;100.00
84318;BME280;74497;51.654;14.238;2023-12-22T07:01:25;97880.22;;;1.30;100.00
84318;BME280;74497;51.654;14.238;2023-12-22T07:03:51;97891.63;;;1.21;100.00
84318;BME280;74497;51.654;14.238;2023-12-22T07:06:18;97891.97;;;1.18;100.00
84318;BME280;74497;51.654;14.238;2023-12-22T07:08:44;97888.66;;;1.16;100.00
84318;BME280;74497;51.654;14.238;2023-12-22T07:11:10;97893.94;;;1.16;100.00
84318;BME280;74497;51.654;14.238;2023-12-22T07:13:39;97886.34;;;1.13;100.00
84318;BME280;74497;51.654;14.238;2023-12-22T07:16:05;97898.66;;;1.12;100.00
84318;BME280;74497;51.654;14.238;2023-12-22T07:18:31;97869.91;;;1.11;100.00
84318;BME280;74497;51.654;14.238;2023-12-22T07:20:57;97879.97;;;1.15;100.00
84318;BME280;74497;51.654;14.238;2023-12-22T07:23:24;97867.97;;;1.21;100.00
84318;BME280;74497;51.654;14.238;2023-12-22T07:25:50;97883.75;;;1.21;100.00
84318;BME280;74497;51.654;14.238;2023-12-22T07:28:15;97878.84;;;1.26;100.00
84318;BME280;74497;51.654;14.238;2023-12-22T07:30:41;97891.22;;;1.33;100.00
84318;BME280;74497;51.654;14.238;2023-12-22T07:33:07;97892.78;;;1.44;100.00
84318;BME280;74497;51.654;14.238;2023-12-22T07:35:36;97893.50;;;1.54;100.00
84318;BME280;74497;51.654;14.238;2023-12-22T07:38:02;97885.63;;;1.62;100.00
84318;BME280;74497;51.654;14.238;2023-12-22T07:40:28;97896.88;;;1.73;100.00
84318;BME280;74497;51.654;14.238;2023-12-22T07:42:56;97903.81;;;1.82;100.00
84318;BME280;74497;51.654;14.238;2023-12-22T07:45:22;97897.94;;;1.96;100.00
84318;BME280;74497;51.654;14.238;2023-12-22T07:47:50;97925.78;;;2.07;100.00
84318;BME280;74497;51.654;14.238;2023-12-22T07:50:16;97893.88;;;2.10;100.00
84318;BME280;74497;51.654;14.238;2023-12-22T07:52:41;97918.25;;;2.12;100.00
84318;BME280;74497;51.654;14.238;2023-12-22T07:55:08;97919.56;;;2.16;100.00
84318;BME280;74497;51.654;14.238;2023-12-22T07:57:36;97936.22;;;2.25;100.00
84318;BME280;74497;51.654;14.238;2023-12-22T08:00:04;97929.97;;;2.26;100.00
84318;BME280;74497;51.654;14.238;2023-12-22T08:02:30;97964.06;;;2.35;100.00
84318;BME280;74497;51.654;14.238;2023-12-22T08:04:55;97939.88;;;2.40;100.00
84318;BME280;74497;51.654;14.238;2023-12-22T08:07:21;97933.31;;;2.44;100.00
84318;BME280;74497;51.654;14.238;2023-12-22T08:09:47;97938.25;;;2.47;100.00
84318;BME280;74497;51.654;14.238;2023-12-22T08:12:12;97982.91;;;2.57;100.00
84318;BME280;74497;51.654;14.238;2023-12-22T08:14:41;97967.09;;;2.57;100.00
84318;BME280;74497;51.654;14.238;2023-12-22T08:17:06;97952.41;;;2.54;100.00
84318;BME280;74497;51.654;14.238;2023-12-22T08:19:32;97959.69;;;2.60;100.00
84318;BME280;74497;51.654;14.238;2023-12-22T08:21:58;97945.53;;;2.61;100.00
84318;BME280;74497;51.654;14.238;2023-12-22T08:24:24;97955.44;;;2.67;100.00
84318;BME280;74497;51.654;14.238;2023-12-22T08:26:50;97960.06;;;2.74;100.00
84318;BME280;74497;51.654;14.238;2023-12-22T08:29:16;97959.88;;;2.75;100.00
84318;BME280;74497;51.654;14.238;2023-12-22T08:31:41;97962.34;;;2.77;100.00
84318;BME280;74497;51.654;14.238;2023-12-22T08:34:07;97966.16;;;2.82;100.00
84318;BME280;74497;51.654;14.238;2023-12-22T08:36:33;97963.53;;;2.90;100.00
84318;BME280;74497;51.654;14.238;2023-12-22T08:38:58;97959.91;;;2.91;100.00
84318;BME280;74497;51.654;14.238;2023-12-22T08:41:24;97974.59;;;2.94;100.00
84318;BME280;74497;51.654;14.238;2023-12-22T08:43:50;97961.41;;;3.02;100.00
84318;BME280;74497;51.654;14.238;2023-12-22T08:46:16;97942.59;;;3.05;100.00
84318;BME280;74497;51.654;14.238;2023-12-22T08:48:42;97944.56;;;3.11;100.00
84318;BME280;74497;51.654;14.238;2023-12-22T08:51:07;97915.56;;;3.11;100.00
84318;BME280;74497;51.654;14.238;2023-12-22T08:53:33;97952.16;;;3.14;100.00
84318;BME280;74497;51.654;14.238;2023-12-22T08:56:02;97952.00;;;3.16;100.00
84318;BME280;74497;51.654;14.238;2023-12-22T08:58:31;97947.53;;;3.16;100.00
84318;BME280;74497;51.654;14.238;2023-12-22T09:00:57;97965.34;;;3.22;100.00
84318;BME280;74497;51.654;14.238;2023-12-22T09:03:23;97970.63;;;3.22;100.00
84318;BME280;74497;51.654;14.238;2023-12-22T09:05:49;97966.16;;;3.23;100.00
84318;BME280;74497;51.654;14.238;2023-12-22T09:08:15;97971.13;;;3.26;100.00
84318;BME280;74497;51.654;14.238;2023-12-22T09:10:40;97968.97;;;3.21;100.00
84318;BME280;74497;51.654;14.238;2023-12-22T09:13:06;97967.97;;;3.31;100.00
84318;BME280;74497;51.654;14.238;2023-12-22T09:15:32;97974.91;;;3.40;100.00
84318;BME280;74497;51.654;14.238;2023-12-22T09:17:57;97978.19;;;3.42;100.00
84318;BME280;74497;51.654;14.238;2023-12-22T09:20:23;97962.06;;;3.45;100.00
84318;BME280;74497;51.654;14.238;2023-12-22T09:22:49;97981.50;;;3.36;100.00
84318;BME280;74497;51.654;14.238;2023-12-22T09:25:15;97981.19;;;3.39;100.00
84318;BME280;74497;51.654;14.238;2023-12-22T09:27:40;97973.09;;;3.32;100.00
84318;BME280;74497;51.654;14.238;2023-12-22T09:30:06;97978.38;;;3.40;100.00
84318;BME280;74497;51.654;14.238;2023-12-22T09:32:33;97980.50;;;3.37;100.00
84318;BME280;74497;51.654;14.238;2023-12-22T09:34:58;97986.78;;;3.44;100.00
84318;BME280;74497;51.654;14.238;2023-12-22T09:37:27;97992.06;;;3.52;100.00
84318;BME280;74497;51.654;14.238;2023-12-22T09:39:52;97995.66;;;3.59;100.00
84318;BME280;74497;51.654;14.238;2023-12-22T09:42:21;97991.19;;;3.68;100.00
84318;BME280;74497;51.654;14.238;2023-12-22T09:44:48;97993.00;;;3.67;100.00
84318;BME280;74497;51.654;14.238;2023-12-22T09:47:15;97999.63;;;3.63;100.00
84318;BME280;74497;51.654;14.238;2023-12-22T09:49:42;97993.34;;;3.56;100.00
84318;BME280;74497;51.654;14.238;2023-12-22T09:52:08;98014.81;;;3.53;100.00
84318;BME280;74497;51.654;14.238;2023-12-22T09:54:34;98011.53;;;3.51;100.00
84318;BME280;74497;51.654;14.238;2023-12-22T09:57:02;98017.28;;;3.46;100.00
84318;BME280;74497;51.654;14.238;2023-12-22T09:59:28;98026.00;;;3.55;100.00
84318;BME280;74497;51.654;14.238;2023-12-22T10:01:55;98023.06;;;3.58;100.00
84318;BME280;74497;51.654;14.238;2023-12-22T10:04:21;98033.28;;;3.53;100.00
84318;BME280;74497;51.654;14.238;2023-12-22T10:06:47;98029.81;;;3.52;100.00
84318;BME280;74497;51.654;14.238;2023-12-22T10:09:15;98030.97;;;3.66;100.00
84318;BME280;74497;51.654;14.238;2023-12-22T10:11:43;98021.06;;;3.60;100.00
84318;BME280;74497;51.654;14.238;2023-12-22T10:14:10;98037.22;;;3.73;100.00
84318;BME280;74497;51.654;14.238;2023-12-22T10:16:36;98019.06;;;3.78;100.00
84318;BME280;74497;51.654;14.238;2023-12-22T10:19:03;98022.19;;;3.90;100.00
84318;BME280;74497;51.654;14.238;2023-12-22T10:21:31;98029.94;;;3.92;100.00
84318;BME280;74497;51.654;14.238;2023-12-22T10:23:57;98026.28;;;3.93;100.00
84318;BME280;74497;51.654;14.238;2023-12-22T10:26:23;98030.91;;;3.99;100.00
84318;BME280;74497;51.654;14.238;2023-12-22T10:28:48;98030.59;;;4.02;100.00
84318;BME280;74497;51.654;14.238;2023-12-22T10:31:14;98033.06;;;4.03;100.00
84318;BME280;74497;51.654;14.238;2023-12-22T10:33:42;98012.78;;;3.96;100.00
84318;BME280;74497;51.654;14.238;2023-12-22T10:36:08;98028.75;;;4.11;100.00
84318;BME280;74497;51.654;14.238;2023-12-22T10:38:35;98055.28;;;4.33;100.00
84318;BME280;74497;51.654;14.238;2023-12-22T10:41:02;98048.59;;;4.54;100.00
84318;BME280;74497;51.654;14.238;2023-12-22T10:43:28;98042.03;;;4.42;100.00
84318;BME280;74497;51.654;14.238;2023-12-22T10:45:55;98046.91;;;4.14;100.00
84318;BME280;74497;51.654;14.238;2023-12-22T10:48:21;98064.25;;;4.08;100.00
84318;BME280;74497;51.654;14.238;2023-12-22T10:50:48;98071.34;;;4.07;100.00
84318;BME280;74497;51.654;14.238;2023-12-22T10:53:14;98032.91;;;3.97;100.00
84318;BME280;74497;51.654;14.238;2023-12-22T10:55:40;98065.69;;;4.19;100.00
84318;BME280;74497;51.654;14.238;2023-12-22T10:58:06;98061.91;;;4.13;100.00
84318;BME280;74497;51.654;14.238;2023-12-22T11:00:32;98048.56;;;4.15;100.00
84318;BME280;74497;51.654;14.238;2023-12-22T11:03:06;98046.91;;;4.14;100.00
84318;BME280;74497;51.654;14.238;2023-12-22T11:05:35;98023.75;;;4.24;100.00
84318;BME280;74497;51.654;14.238;2023-12-22T11:08:02;98057.44;;;4.22;100.00
84318;BME280;74497;51.654;14.238;2023-12-22T11:10:31;98054.84;;;4.14;100.00
84318;BME280;74497;51.654;14.238;2023-12-22T11:12:59;98064.06;;;4.18;100.00
84318;BME280;74497;51.654;14.238;2023-12-22T11:15:25;98062.59;;;4.15;100.00
84318;BME280;74497;51.654;14.238;2023-12-22T11:17:55;98057.28;;;4.07;100.00
84318;BME280;74497;51.654;14.238;2023-12-22T11:20:22;98045.03;;;4.30;100.00
84318;BME280;74497;51.654;14.238;2023-12-22T11:22:49;98031.47;;;4.33;100.00
84318;BME280;74497;51.654;14.238;2023-12-22T11:25:17;98030.59;;;4.49;100.00
84318;BME280;74497;51.654;14.238;2023-12-22T11:27:46;98031.84;;;4.61;100.00
84318;BME280;74497;51.654;14.238;2023-12-22T11:30:14;98016.06;;;4.76;100.00
84318;BME280;74497;51.654;14.238;2023-12-22T11:32:39;98030.97;;;4.77;100.00
84318;BME280;74497;51.654;14.238;2023-12-22T11:35:06;98018.00;;;4.59;100.00
84318;BME280;74497;51.654;14.238;2023-12-22T11:37:37;98026.38;;;4.94;99.69
84318;BME280;74497;51.654;14.238;2023-12-22T11:40:04;98022.53;;;5.05;96.56
84318;BME280;74497;51.654;14.238;2023-12-22T11:42:33;98029.22;;;4.93;93.99
84318;BME280;74497;51.654;14.238;2023-12-22T11:45:03;98032.41;;;5.11;93.56
84318;BME280;74497;51.654;14.238;2023-12-22T11:47:29;98032.78;;;5.31;91.68
84318;BME280;74497;51.654;14.238;2023-12-22T11:49:55;98014.06;;;5.32;90.46
84318;BME280;74497;51.654;14.238;2023-12-22T11:52:27;98034.41;;;5.32;87.89
84318;BME280;74497;51.654;14.238;2023-12-22T11:54:57;98025.66;;;5.31;87.13
84318;BME280;74497;51.654;14.238;2023-12-22T11:59:52;98030.53;;;5.42;86.51
84318;BME280;74497;51.654;14.238;2023-12-22T12:02:18;98010.47;;;5.48;86.99
84318;BME280;74497;51.654;14.238;2023-12-22T12:04:47;98009.06;;;5.37;86.42
84318;BME280;74497;51.654;14.238;2023-12-22T12:07:39;98020.84;;;5.35;86.68
84318;BME280;74497;51.654;14.238;2023-12-22T12:10:07;98029.34;;;5.45;86.02
84318;BME280;74497;51.654;14.238;2023-12-22T12:12:33;98034.13;;;5.64;85.99
84318;BME280;74497;51.654;14.238;2023-12-22T12:15:07;98044.06;;;5.48;84.65
84318;BME280;74497;51.654;14.238;2023-12-22T12:17:33;98035.34;;;5.16;84.08
84318;BME280;74497;51.654;14.238;2023-12-22T12:19:59;98042.81;;;5.12;85.73
84318;BME280;74497;51.654;14.238;2023-12-22T12:22:25;98041.09;;;4.97;84.92
84318;BME280;74497;51.654;14.238;2023-12-22T12:24:52;98034.72;;;4.83;85.44
84318;BME280;74497;51.654;14.238;2023-12-22T12:27:19;98044.91;;;4.63;86.09
84318;BME280;74497;51.654;14.238;2023-12-22T12:29:45;98036.06;;;4.48;87.12
84318;BME280;74497;51.654;14.238;2023-12-22T12:32:14;98050.09;;;4.48;88.41
84318;BME280;74497;51.654;14.238;2023-12-22T12:34:42;98056.22;;;4.41;89.91
84318;BME280;74497;51.654;14.238;2023-12-22T12:37:08;98053.22;;;4.44;91.02
84318;BME280;74497;51.654;14.238;2023-12-22T12:39:35;98051.28;;;4.38;91.73
84318;BME280;74497;51.654;14.238;2023-12-22T12:42:01;98034.94;;;4.34;92.23
84318;BME280;74497;51.654;14.238;2023-12-22T12:44:30;98028.53;;;4.28;92.72
84318;BME280;74497;51.654;14.238;2023-12-22T12:46:57;98039.59;;;4.24;94.88
84318;BME280;74497;51.654;14.238;2023-12-22T12:49:23;98019.13;;;4.18;96.03
84318;BME280;74497;51.654;14.238;2023-12-22T12:51:53;98047.50;;;4.32;97.09
84318;BME280;74497;51.654;14.238;2023-12-22T12:54:19;98038.06;;;4.46;97.89